Cuite, Brazil
Current Conditions -  °F | °C
As of 6:47 PM on Tuesday 21 Oct 2014 (Local Time) from SBKG Reporting Station
Broken Clouds Broken Clouds  
Wind Chill: 73°   Ceiling: 2100
Heat Index: 73°   Visibility: 6mi
Dew Point: 66°   Wind: 16mph
Humidity: 78%   Direction: 110°ESE
Pressure: 30"   Gusts: NA
Location:  6.48°S, 36.15°W
Report Text: SBKG 212147Z 11014KT 9999 BKN021 23/19 Q1016
Loading
Personal Weather Stations






























Interactive Weather Map
Tropical Storm Tracking
New forecast layout! Learn more

10-Day Weather Forecast

Advertisements
Track Severe Weather on mobile